Latest Weather Observations for Grafton Airport

IDN60801

Issued at 4:33 am EST Saturday 4 July 2015 (issued every 30 minutes, with the page automatically refreshed every 10 minutes)

About weather observations | Map of weather stations | Latest weather observations for NSW | Other Formats
Station Details ID: 058161 Name: GRAFTON AIRPORT AWS Lat: -29.76 Lon: 153.03 Height: 25.09 m
Data from the previous 72 hours. | See also: Recent months for locations in New South Wales
Date/Time
EST
Temp
°C
App
Temp
°C
Dew
Point
Rel
Hum
%
Delta-T
°C
Wind Press
QNH
hPa
Press
MSL
hPa
Rain
since 9 am
mm
Dir
 
Spd
km/h
Gust
km/h
Spd
kts
Gust
kts
04/04:30am 4.9 3.5 3.7 92 0.5 CALM 0 0 0 0 1023.5 1023.5 0.0
04/04:00am 6.1 3.9 5.1 93 0.4 S 6 9 3 5 1023.5 1023.5 0.0
04/03:30am 6.1 3.7 5.2 94 0.4 SSW 7 9 4 5 1023.7 1023.7 0.0
04/03:00am 5.9 3.1 5.2 95 0.3 SSW 9 11 5 6 1023.8 1023.8 0.0
04/02:30am 6.1 3.9 5.1 93 0.4 SSW 6 7 3 4 1023.7 1023.7 0.0
04/02:00am 6.7 4.3 5.3 91 0.6 SSW 7 9 4 5 1023.9 1023.9 0.0
04/01:30am 6.9 4.2 5.7 92 0.5 SSW 9 11 5 6 1023.9 1023.9 0.0
04/01:00am 6.6 4.3 5.7 94 0.4 SSW 7 9 4 5 1024.0 1024.0 0.0
04/12:30am 6.5 3.8 5.8 95 0.3 SSW 9 11 5 6 1024.1 1024.1 0.0
04/12:00am 6.3 4.0 5.6 95 0.3 SSW 7 9 4 5 1024.0 1024.0 0.0
 
Date/Time
EST
Temp
°C
App
Temp
°C
Dew
Point
Rel
Hum
%
Delta-T
°C
Wind Press
QNH
hPa
Press
MSL
hPa
Rain
since 9 am
mm
Dir
 
Spd
km/h
Gust
km/h
Spd
kts
Gust
kts
03/11:30pm 6.4 4.1 5.5 94 0.4 SSW 7 9 4 5 1024.2 1024.2 0.0
03/11:00pm 6.8 4.5 5.9 94 0.4 SSW 7 9 4 5 1024.1 1024.1 0.0
03/10:30pm 7.7 5.6 6.8 94 0.4 SSW 7 9 4 5 1024.4 1024.4 0.0
03/10:00pm 7.0 4.7 5.9 93 0.5 SW 7 9 4 5 1024.6 1024.6 0.0
03/09:30pm 8.3 6.4 7.4 94 0.4 SSW 7 11 4 6 1024.6 1024.6 0.0
03/09:00pm 7.9 5.9 7.1 95 0.4 SW 7 11 4 6 1024.5 1024.5 0.0
03/08:30pm 8.2 7.6 7.3 94 0.4 CALM 0 7 0 4 1024.3 1024.3 0.0
03/08:00pm 8.7 6.3 7.2 90 0.7 SSW 9 9 5 5 1024.1 1024.1 0.0
03/07:30pm 9.6 7.3 7.4 86 1.0 SSW 9 11 5 6 1023.9 1023.9 0.0
03/07:00pm 10.1 7.6 8.4 89 0.8 S 11 11 6 6 1023.7 1023.7 0.0
03/06:30pm 10.6 8.6 8.5 87 1.0 SSW 9 11 5 6 1023.5 1023.5 0.0
03/06:00pm 11.0 10.0 7.5 79 1.7 SSW 2 7 1 4 1023.3 1023.3 0.0
03/05:30pm 12.9 11.3 8.0 72 2.4 S 6 9 3 5 1023.0 1023.0 0.0
03/05:00pm 14.4 12.2 7.9 65 3.2 SSE 9 13 5 7 1022.8 1022.8 0.0
03/04:30pm 15.9 13.2 7.4 57 4.2 SSE 11 13 6 7 1022.8 1022.8 0.0
03/04:00pm 17.1 14.0 7.2 52 4.9 SSE 13 20 7 11 1022.6 1022.6 0.0
03/03:30pm 17.6 14.9 7.4 51 5.1 SSE 11 15 6 8 1022.5 1022.5 0.0
03/03:00pm 18.5 15.3 6.7 46 5.9 SSW 13 19 7 10 1022.3 1022.3 0.0
03/02:30pm 18.3 14.6 6.2 45 6.0 S 15 22 8 12 1022.1 1022.1 0.0
03/02:00pm 18.5 14.4 6.4 45 6.0 S 17 24 9 13 1021.8 1021.8 0.0
03/01:30pm 18.6 14.3 7.1 47 5.8 S 19 26 10 14 1021.8 1021.8 0.0
03/01:00pm 18.4 14.7 6.3 45 6.0 SSW 15 30 8 16 1021.9 1021.9 0.0
03/12:30pm 18.1 14.5 6.9 48 5.6 S 15 22 8 12 1022.3 1022.3 0.0
03/12:00pm 18.0 15.2 7.1 49 5.4 S 11 22 6 12 1022.6 1022.6 0.0
03/11:30am 16.9 14.2 7.5 54 4.7 SSW 11 19 6 10 1023.1 1023.1 0.0
03/11:00am 15.8 12.9 6.3 53 4.6 SW 11 17 6 9 1023.5 1023.5 0.0
03/10:30am 14.4 11.6 5.2 54 4.3 SW 9 15 5 8 1023.8 1023.8 0.0
03/10:00am 13.3 11.0 5.5 59 3.6 WSW 7 13 4 7 1024.1 1024.1 0.0
03/09:30am 11.7 9.9 5.3 65 2.9 NE 4 7 2 4 1024.1 1024.1 0.0
03/09:00am 10.0 7.9 4.0 66 2.6 N 4 7 2 4 1023.9 1023.9 0.0
03/08:30am 7.7 5.2 3.7 76 1.7 N 6 7 3 4 1023.7 1023.7 0.0
03/08:00am 5.2 3.4 3.2 87 0.8 N 2 7 1 4 1023.3 1023.3 0.0
03/07:30am 5.6 2.9 2.9 83 1.1 SSW 6 7 3 4 1023.1 1023.1 0.0
03/07:00am 3.0 1.2 1.4 89 0.6 CALM 0 0 0 0 1022.9 1022.9 0.0
03/06:30am 3.0 0.0 1.7 91 0.5 S 7 9 4 5 1022.8 1022.8 0.0
03/06:00am 2.8 -0.1 1.2 89 0.6 S 6 7 3 4 1022.2 1022.2 0.0
03/05:30am 3.6 0.3 2.3 91 0.5 SSW 9 11 5 6 1022.0 1022.0 0.0
03/05:00am 3.7 0.8 2.5 92 0.5 SSW 7 9 4 5 1021.7 1021.7 0.0
03/04:30am 3.7 0.8 2.8 94 0.4 S 7 11 4 6 1021.4 1021.4 0.0
03/04:00am 3.5 0.5 2.2 91 0.5 S 7 9 4 5 1021.4 1021.4 0.0
03/03:30am 4.2 0.9 2.2 87 0.8 S 9 11 5 6 1021.3 1021.3 0.0
03/03:00am 4.1 0.0 2.3 88 0.7 S 13 13 7 7 1021.0 1021.0 0.0
03/02:30am 6.5 3.8 2.4 75 1.7 SE 6 7 3 4 1021.2 1021.2 0.0
03/02:00am 5.9 2.9 2.2 77 1.5 SW 7 13 4 7 1021.0 1021.0 0.0
03/01:30am 6.3 3.5 2.2 75 1.7 SSE 6 7 3 4 1021.3 1021.3 0.0
03/01:00am 6.6 3.6 2.1 73 1.8 SSW 7 9 4 5 1021.1 1021.1 0.0
03/12:30am 5.9 3.3 3.1 82 1.2 SW 6 7 3 4 1021.0 1021.0 0.0
03/12:00am 7.1 4.3 2.0 70 2.1 SW 6 7 3 4 1021.3 1021.3 0.0
 
Date/Time
EST
Temp
°C
App
Temp
°C
Dew
Point
Rel
Hum
%
Delta-T
°C
Wind Press
QNH
hPa
Press
MSL
hPa
Rain
since 9 am
mm
Dir
 
Spd
km/h
Gust
km/h
Spd
kts
Gust
kts
02/11:30pm 8.7 5.4 2.3 64 2.7 SSW 9 13 5 7 1021.3 1021.3 0.0
02/11:00pm 8.4 4.9 1.3 61 2.9 SSW 9 11 5 6 1021.1 1021.1 0.0
02/10:30pm 9.7 6.2 1.1 55 3.5 WSW 9 15 5 8 1020.9 1020.9 0.0
02/10:00pm 9.9 5.6 1.0 54 3.6 SW 13 17 7 9 1020.7 1020.7 0.0
02/09:30pm 10.4 6.4 0.7 51 4.0 SW 11 17 6 9 1020.8 1020.8 0.0
02/09:00pm 10.2 6.2 3.0 61 3.1 SW 13 20 7 11 1020.4 1020.4 0.0
02/08:30pm 8.7 6.8 7.6 93 0.5 SW 7 13 4 7 1019.9 1019.9 0.0
02/08:00pm 9.3 6.8 8.1 92 0.6 S 11 13 6 7 1019.5 1019.5 0.0
02/07:30pm 9.2 6.4 8.6 96 0.3 S 13 17 7 9 1018.6 1018.6 0.0
02/07:00pm 9.3 7.8 8.4 94 0.4 S 6 9 3 5 1017.9 1017.9 0.0
02/06:30pm 9.7 9.2 8.0 89 0.8 CALM 0 0 0 0 1017.8 1017.8 0.0
02/06:00pm 10.4 8.7 8.5 88 0.9 S 7 13 4 7 1017.7 1017.7 0.0
02/05:30pm 10.6 8.8 7.8 83 1.4 S 7 9 4 5 1017.2 1017.2 0.0
02/05:00pm 12.6 11.0 8.7 77 1.9 S 7 9 4 5 1016.9 1016.9 0.0
02/04:30pm 14.5 14.4 9.3 71 2.7 CALM 0 6 0 3 1016.8 1016.8 0.0
02/04:00pm 15.8 15.4 8.1 60 3.9 CALM 0 0 0 0 1016.7 1016.7 0.0
02/03:30pm 18.2 17.6 7.3 49 5.5 CALM 0 0 0 0 1016.5 1016.5 0.0
02/03:00pm 19.5 16.9 3.2 34 7.6 NW 6 9 3 5 1016.7 1016.7 0.0
02/02:30pm 19.2 17.1 5.6 41 6.7 NW 6 11 3 6 1016.8 1016.8 0.0
02/02:00pm 19.3 17.0 5.7 41 6.7 NW 7 13 4 7 1016.9 1016.9 0.0
02/01:30pm 19.0 16.5 6.5 44 6.2 N 9 11 5 6 1016.8 1016.8 0.0
02/01:00pm 18.9 16.8 6.7 45 6.1 NW 7 9 4 5 1017.5 1017.5 0.0
02/12:30pm 17.5 15.2 5.8 46 5.7 WSW 7 13 4 7 1018.0 1018.0 0.0
02/12:00pm 16.9 14.2 5.5 47 5.5 WSW 9 13 5 7 1018.4 1018.4 0.0
02/11:30am 16.1 13.9 6.0 51 4.9 W 7 13 4 7 1019.3 1019.3 0.0
02/11:00am 15.7 13.2 6.4 54 4.5 WSW 9 13 5 7 1019.6 1019.6 0.0
02/10:30am 15.4 13.2 7.9 61 3.8 W 9 17 5 9 1020.2 1020.2 0.0
02/10:00am 14.2 12.7 9.0 71 2.6 W 7 15 4 8 1020.8 1020.8 0.0
02/09:30am 13.0 12.9 9.4 79 1.8 CALM 0 0 0 0 1021.0 1021.0 0.0
02/09:00am 11.1 10.2 9.2 88 0.9 WSW 4 7 2 4 1021.2 1021.2 0.6
02/08:30am 9.3 9.0 8.8 97 0.2 CALM 0 0 0 0 1021.1 1021.1 0.6
02/08:08am 8.4 8.0 8.3 99 0.0 CALM 0 0 0 0 1021.3 1021.3 0.6
02/08:00am 8.0 7.5 7.9 99 0.0 CALM 0 0 0 0 1021.3 1021.3 0.6
02/07:55am 7.4 6.8 7.3 99 0.0 CALM 0 0 0 0 1021.4 1021.4 0.6
02/07:38am 6.2 5.3 6.1 99 0.0 CALM 0 0 0 0 1021.4 1021.4 0.6
02/07:30am 5.7 4.7 5.6 99 0.0 CALM 0 0 0 0 1021.3 1021.3 0.6
02/07:02am 5.6 4.6 5.5 99 0.0 CALM 0 0 0 0 1021.1 1021.1 0.6
02/07:00am 5.5 4.5 5.4 99 0.0 CALM 0 0 0 0 1021.1 1021.1 0.6
02/06:57am 5.4 4.3 5.3 99 0.0 CALM 0 0 0 0 1021.0 1021.0 0.6
02/06:30am 5.1 3.9 4.8 98 0.1 CALM 0 0 0 0 1020.9 1020.9 0.6
02/06:20am 5.7 4.7 5.6 99 0.0 CALM 0 0 0 0 1020.8 1020.8 0.6
02/06:17am 6.2 5.3 6.1 99 0.0 CALM 0 0 0 0 1020.7 1020.7 0.6
02/06:00am 5.8 4.8 5.5 98 0.1 CALM 0 0 0 0 1020.6 1020.6 0.6
02/05:51am 6.3 4.7 6.2 99 0.0 S 4 7 2 4 1020.5 1020.5 0.6
02/05:34am 6.7 3.8 6.6 99 0.0 S 11 11 6 6 1020.4 1020.4 0.6
02/05:30am 6.6 4.1 6.5 99 0.0 S 9 11 5 6 1020.5 1020.5 0.6
02/05:24am 6.6 4.5 6.5 99 0.0 S 7 11 4 6 1020.5 1020.5 0.6
02/05:00am 6.1 4.0 5.8 98 0.1 WSW 6 6 3 3 1020.5 1020.5 0.6
02/04:30am 6.8 6.0 6.5 98 0.1 CALM 0 0 0 0 1020.2 1020.2 0.6
02/04:00am 6.5 5.6 6.1 97 0.2 CALM 0 0 0 0 1020.5 1020.5 0.4
02/03:53am 6.4 5.5 6.0 97 0.2 CALM 0 0 0 0 1020.5 1020.5 0.4
02/03:30am 8.1 7.6 8.0 99 0.0 CALM 0 0 0 0 1020.7 1020.7 0.4
02/03:28am 8.4 8.0 8.3 99 0.0 CALM 0 0 0 0 1020.8 1020.8 0.4
02/03:15am 8.5 8.1 8.4 99 0.0 CALM 0 0 0 0 1021.1 1021.1 0.4
02/03:00am 8.4 8.0 8.3 99 0.0 CALM 0 0 0 0 1021.2 1021.2 0.4
02/02:30am 8.1 7.6 7.8 98 0.1 CALM 0 0 0 0 1021.4 1021.4 0.4
02/02:00am 9.1 8.8 8.8 98 0.1 CALM 0 6 0 3 1021.5 1021.5 0.4
02/01:30am 9.0 8.7 8.7 98 0.1 CALM 0 0 0 0 1021.7 1021.7 0.4
02/01:00am 10.3 10.4 10.1 99 0.1 CALM 0 0 0 0 1021.8 1021.8 0.4
02/12:30am 10.5 10.6 10.2 98 0.2 CALM 0 0 0 0 1022.0 1022.0 0.4
02/12:00am 10.2 10.1 9.3 94 0.4 CALM 0 0 0 0 1022.1 1022.1 0.4
 
Date/Time
EST
Temp
°C
App
Temp
°C
Dew
Point
Rel
Hum
%
Delta-T
°C
Wind Press
QNH
hPa
Press
MSL
hPa
Rain
since 9 am
mm
Dir
 
Spd
km/h
Gust
km/h
Spd
kts
Gust
kts
01/11:30pm 12.0 11.4 11.7 98 0.2 SSW 6 7 3 4 1022.1 1022.1 0.4
01/11:18pm 11.9 12.0 11.4 97 0.3 SW 2 6 1 3 1022.3 1022.3 0.4
01/11:00pm 12.3 11.7 11.8 97 0.3 SSW 6 9 3 5 1022.5 1022.5 0.4
01/10:30pm 12.6 13.2 11.8 95 0.4 CALM 0 6 0 3 1022.7 1022.7 0.4
01/10:00pm 13.0 12.5 12.1 94 0.5 SSW 6 7 3 4 1022.6 1022.6 0.4
01/09:30pm 13.4 13.8 12.6 95 0.4 SSW 2 7 1 4 1022.6 1022.6 0.4
01/09:00pm 13.8 13.5 12.7 93 0.6 S 6 7 3 4 1022.8 1022.8 0.4
01/08:30pm 14.4 14.2 13.0 91 0.8 SSW 6 7 3 4 1023.0 1023.0 0.4
01/08:00pm 14.1 14.2 12.8 92 0.7 WSW 4 9 2 5 1022.9 1022.9 0.4
01/07:30pm 14.4 13.9 12.6 89 1.0 SSW 7 9 4 5 1022.4 1022.4 0.4
01/07:00pm 14.2 13.7 12.1 87 1.1 WSW 6 6 3 3 1022.2 1022.2 0.0
01/06:30pm 14.6 14.8 11.9 84 1.5 SW 2 6 1 3 1021.9 1021.9 0.0
01/06:00pm 14.8 14.0 11.8 82 1.6 S 7 9 4 5 1021.7 1021.7 0.0
01/05:30pm 15.9 15.1 11.7 76 2.3 SSE 7 11 4 6 1021.2 1021.2 0.0
01/05:00pm 16.8 15.0 12.1 74 2.6 SE 13 17 7 9 1020.8 1020.8 0.0
01/04:30pm 17.2 16.3 12.5 74 2.6 ESE 9 11 5 6 1020.8 1020.8 0.0
01/04:00pm 17.6 16.4 12.7 73 2.7 ESE 11 13 6 7 1020.9 1020.9 0.0
01/03:30pm 19.0 18.1 12.5 66 3.6 ESE 9 15 5 8 1020.8 1020.8 0.0
01/03:00pm 19.5 17.2 11.8 61 4.2 ESE 15 20 8 11 1020.8 1020.8 0.0
01/02:30pm 20.0 19.2 11.2 57 4.8 ESE 6 7 3 4 1020.8 1020.8 0.0
01/02:00pm 20.1 19.3 11.6 58 4.7 SE 7 11 4 6 1021.0 1021.0 0.0
01/01:30pm 21.0 20.3 11.3 54 5.4 SSE 6 11 3 6 1021.2 1021.2 0.0
01/01:00pm 21.6 20.9 13.2 59 4.8 SSE 9 13 5 7 1021.6 1021.6 0.0
01/12:30pm 21.4 21.3 12.0 55 5.3 NW 4 7 2 4 1022.0 1022.0 0.0
01/12:00pm 20.1 18.8 11.3 57 4.8 WSW 9 13 5 7 1022.5 1022.5 0.0
01/11:30am 20.3 19.9 12.5 61 4.4 WNW 6 9 3 5 1023.0 1023.0 0.0
01/11:00am 19.7 19.4 12.7 64 3.9 NNE 6 9 3 5 1023.6 1023.6 0.0
01/10:30am 18.7 18.9 11.8 64 3.8 WNW 2 7 1 4 1024.1 1024.1 0.0
01/10:00am 17.5 17.9 12.4 72 2.8 WSW 2 7 1 4 1024.5 1024.5 0.0
01/09:30am 15.5 15.4 12.1 80 1.9 WSW 4 7 2 4 1024.6 1024.6 0.0
01/09:00am 14.2 13.7 11.9 86 1.2 NNW 6 6 3 3 1024.7 1024.7 0.0
01/08:30am 11.9 11.9 11.1 95 0.4 W 2 6 1 3 1024.7 1024.7 0.0
01/08:00am 11.4 11.7 10.9 97 0.3 CALM 0 0 0 0 1024.5 1024.5 0.0
01/07:30am 11.4 10.9 10.9 97 0.3 SSW 4 7 2 4 1024.3 1024.3 0.0
01/07:00am 11.1 10.2 10.8 98 0.2 SSW 6 9 3 5 1024.1 1024.1 0.0
01/06:30am 10.6 9.6 10.3 98 0.2 SSW 6 7 3 4 1024.0 1024.0 0.0
01/06:00am 10.5 10.6 10.2 98 0.2 CALM 0 0 0 0 1023.8 1023.8 0.0
01/05:30am 10.5 10.6 10.3 99 0.1 CALM 0 0 0 0 1023.8 1023.8 0.0
01/05:00am 10.0 10.0 9.7 98 0.1 CALM 0 0 0 0 1023.9 1023.9 0.0

Other Formats:

Comma delimited format used in spreadsheet applications
http://www.bom.gov.au/fwo/IDN60801/IDN60801.95570.axf

JavaScript Object Notation format (JSON) in row-major order
http://www.bom.gov.au/fwo/IDN60801/IDN60801.95570.json